sensor_id;sensor_type;location;lat;lon;timestamp;pressure;altitude;pressure_sealevel;temperature;humidity
64086;BME280;50333;47.436;21.390;2022-08-14T00:02:15;99948.50;;;24.39;54.46
64086;BME280;50333;47.436;21.390;2022-08-14T00:04:43;99948.88;;;24.37;54.51
64086;BME280;50333;47.436;21.390;2022-08-14T00:07:12;99952.34;;;24.41;54.13
64086;BME280;50333;47.436;21.390;2022-08-14T00:09:42;99955.63;;;24.61;53.66
64086;BME280;50333;47.436;21.390;2022-08-14T00:12:31;99950.75;;;24.71;53.32
64086;BME280;50333;47.436;21.390;2022-08-14T00:15:32;99945.44;;;24.74;53.13
64086;BME280;50333;47.436;21.390;2022-08-14T00:18:14;99941.91;;;24.59;53.49
64086;BME280;50333;47.436;21.390;2022-08-14T00:21:03;99942.72;;;23.99;55.28
64086;BME280;50333;47.436;21.390;2022-08-14T00:23:38;99934.56;;;24.19;54.61
64086;BME280;50333;47.436;21.390;2022-08-14T00:26:06;99933.41;;;23.86;55.60
64086;BME280;50333;47.436;21.390;2022-08-14T00:28:50;99939.16;;;23.88;55.52
64086;BME280;50333;47.436;21.390;2022-08-14T00:31:19;99939.94;;;23.62;56.35
64086;BME280;50333;47.436;21.390;2022-08-14T00:34:02;99938.75;;;23.86;55.61
64086;BME280;50333;47.436;21.390;2022-08-14T00:36:50;99936.72;;;24.06;55.03
64086;BME280;50333;47.436;21.390;2022-08-14T00:39:18;99930.16;;;24.00;55.14
64086;BME280;50333;47.436;21.390;2022-08-14T00:41:46;99939.47;;;24.13;54.82
64086;BME280;50333;47.436;21.390;2022-08-14T00:44:15;99937.72;;;23.94;55.28
64086;BME280;50333;47.436;21.390;2022-08-14T00:47:00;99941.53;;;24.27;54.33
64086;BME280;50333;47.436;21.390;2022-08-14T00:49:29;99934.78;;;24.37;53.96
64086;BME280;50333;47.436;21.390;2022-08-14T00:52:14;99930.94;;;24.34;54.00
64086;BME280;50333;47.436;21.390;2022-08-14T00:54:47;99935.38;;;24.19;54.42
64086;BME280;50333;47.436;21.390;2022-08-14T00:57:27;99941.38;;;24.13;54.44
64086;BME280;50333;47.436;21.390;2022-08-14T00:59:55;99935.56;;;23.77;55.74
64086;BME280;50333;47.436;21.390;2022-08-14T01:02:23;99944.19;;;23.93;55.20
64086;BME280;50333;47.436;21.390;2022-08-14T01:04:57;99936.81;;;24.13;54.67
64086;BME280;50333;47.436;21.390;2022-08-14T01:07:26;99939.28;;;24.33;54.03
64086;BME280;50333;47.436;21.390;2022-08-14T01:10:14;99932.59;;;24.12;54.40
64086;BME280;50333;47.436;21.390;2022-08-14T01:12:45;99932.91;;;23.77;55.60
64086;BME280;50333;47.436;21.390;2022-08-14T01:15:14;99932.16;;;24.06;54.68
64086;BME280;50333;47.436;21.390;2022-08-14T01:17:43;99942.59;;;23.88;55.32
64086;BME280;50333;47.436;21.390;2022-08-14T01:20:31;99949.13;;;23.68;55.96
64086;BME280;50333;47.436;21.390;2022-08-14T01:23:18;99940.56;;;23.51;56.29
64086;BME280;50333;47.436;21.390;2022-08-14T01:25:49;99942.63;;;23.39;56.75
64086;BME280;50333;47.436;21.390;2022-08-14T01:28:19;99946.03;;;23.62;56.09
64086;BME280;50333;47.436;21.390;2022-08-14T01:31:11;99946.63;;;23.52;56.43
64086;BME280;50333;47.436;21.390;2022-08-14T01:33:43;99949.19;;;23.71;55.70
64086;BME280;50333;47.436;21.390;2022-08-14T01:36:33;99946.13;;;23.69;55.85
64086;BME280;50333;47.436;21.390;2022-08-14T01:39:10;99954.09;;;23.69;55.79
64086;BME280;50333;47.436;21.390;2022-08-14T01:41:46;99958.81;;;23.80;55.35
64086;BME280;50333;47.436;21.390;2022-08-14T01:44:28;99951.25;;;23.55;55.99
64086;BME280;50333;47.436;21.390;2022-08-14T01:47:06;99959.62;;;23.57;56.09
64086;BME280;50333;47.436;21.390;2022-08-14T01:49:50;99947.03;;;23.81;55.37
64086;BME280;50333;47.436;21.390;2022-08-14T01:52:33;99941.28;;;23.79;55.45
64086;BME280;50333;47.436;21.390;2022-08-14T01:55:24;99934.81;;;23.76;55.41
64086;BME280;50333;47.436;21.390;2022-08-14T01:58:00;99943.00;;;23.90;55.03
64086;BME280;50333;47.436;21.390;2022-08-14T02:00:48;99942.56;;;23.85;55.20
64086;BME280;50333;47.436;21.390;2022-08-14T02:03:24;99930.44;;;23.91;55.01
64086;BME280;50333;47.436;21.390;2022-08-14T02:06:01;99933.13;;;23.64;55.72
64086;BME280;50333;47.436;21.390;2022-08-14T02:08:49;99929.00;;;23.67;55.84
64086;BME280;50333;47.436;21.390;2022-08-14T02:11:23;99930.94;;;23.43;56.56
64086;BME280;50333;47.436;21.390;2022-08-14T02:14:00;99919.94;;;23.45;56.67
64086;BME280;50333;47.436;21.390;2022-08-14T02:16:39;99918.47;;;23.78;55.63
64086;BME280;50333;47.436;21.390;2022-08-14T02:19:10;99916.94;;;23.77;55.65
64086;BME280;50333;47.436;21.390;2022-08-14T02:21:43;99927.00;;;23.60;56.02
64086;BME280;50333;47.436;21.390;2022-08-14T02:24:17;99923.19;;;23.61;56.11
64086;BME280;50333;47.436;21.390;2022-08-14T02:27:07;99919.69;;;23.53;56.36
64086;BME280;50333;47.436;21.390;2022-08-14T02:29:58;99920.94;;;23.10;57.35
64086;BME280;50333;47.436;21.390;2022-08-14T02:32:31;99926.72;;;22.92;57.90
64086;BME280;50333;47.436;21.390;2022-08-14T02:35:07;99926.38;;;23.17;57.43
64086;BME280;50333;47.436;21.390;2022-08-14T02:37:42;99937.84;;;23.02;58.06
64086;BME280;50333;47.436;21.390;2022-08-14T02:40:18;99932.94;;;23.50;56.50
64086;BME280;50333;47.436;21.390;2022-08-14T02:42:59;99935.78;;;23.38;56.69
64086;BME280;50333;47.436;21.390;2022-08-14T02:45:29;99934.44;;;23.24;57.06
64086;BME280;50333;47.436;21.390;2022-08-14T02:48:12;99929.97;;;23.05;57.91
64086;BME280;50333;47.436;21.390;2022-08-14T02:51:03;99923.47;;;23.03;57.89
64086;BME280;50333;47.436;21.390;2022-08-14T02:53:38;99925.22;;;22.95;58.27
64086;BME280;50333;47.436;21.390;2022-08-14T02:56:14;99921.34;;;22.89;58.74
64086;BME280;50333;47.436;21.390;2022-08-14T02:59:08;99924.91;;;23.00;58.55
64086;BME280;50333;47.436;21.390;2022-08-14T03:01:37;99925.53;;;23.13;58.20
64086;BME280;50333;47.436;21.390;2022-08-14T03:04:17;99920.75;;;23.22;58.08
64086;BME280;50333;47.436;21.390;2022-08-14T03:06:48;99922.09;;;23.12;58.55
64086;BME280;50333;47.436;21.390;2022-08-14T03:09:37;99922.06;;;23.09;59.03
64086;BME280;50333;47.436;21.390;2022-08-14T03:12:26;99922.41;;;23.07;59.14
64086;BME280;50333;47.436;21.390;2022-08-14T03:15:00;99931.91;;;22.43;61.22
64086;BME280;50333;47.436;21.390;2022-08-14T03:17:35;99927.50;;;22.50;61.05
64086;BME280;50333;47.436;21.390;2022-08-14T03:20:22;99921.91;;;22.78;60.14
64086;BME280;50333;47.436;21.390;2022-08-14T03:22:50;99922.22;;;22.73;60.34
64086;BME280;50333;47.436;21.390;2022-08-14T03:25:19;99917.13;;;22.65;60.77
64086;BME280;50333;47.436;21.390;2022-08-14T03:27:48;99924.84;;;22.50;61.34
64086;BME280;50333;47.436;21.390;2022-08-14T03:30:26;99920.16;;;22.44;61.65
64086;BME280;50333;47.436;21.390;2022-08-14T03:33:08;99922.94;;;22.51;61.32
64086;BME280;50333;47.436;21.390;2022-08-14T03:35:39;99932.87;;;22.54;61.37
64086;BME280;50333;47.436;21.390;2022-08-14T03:38:28;99928.03;;;22.20;62.82
64086;BME280;50333;47.436;21.390;2022-08-14T03:41:22;99927.91;;;22.52;61.75
64086;BME280;50333;47.436;21.390;2022-08-14T03:43:57;99929.72;;;22.09;63.25
64086;BME280;50333;47.436;21.390;2022-08-14T03:46:45;99925.56;;;22.28;62.58
64086;BME280;50333;47.436;21.390;2022-08-14T03:49:23;99919.78;;;22.26;62.65
64086;BME280;50333;47.436;21.390;2022-08-14T03:51:57;99924.56;;;21.97;63.87
64086;BME280;50333;47.436;21.390;2022-08-14T03:54:28;99927.19;;;21.97;64.11
64086;BME280;50333;47.436;21.390;2022-08-14T03:56:56;99926.22;;;22.25;63.02
64086;BME280;50333;47.436;21.390;2022-08-14T03:59:31;99928.03;;;22.20;63.14
64086;BME280;50333;47.436;21.390;2022-08-14T04:02:00;99930.16;;;22.31;62.97
64086;BME280;50333;47.436;21.390;2022-08-14T04:04:36;99929.47;;;22.34;63.00
64086;BME280;50333;47.436;21.390;2022-08-14T04:07:05;99936.66;;;22.76;61.61
64086;BME280;50333;47.436;21.390;2022-08-14T04:09:38;99930.34;;;22.84;61.21
64086;BME280;50333;47.436;21.390;2022-08-14T04:12:07;99934.13;;;22.83;61.27
64086;BME280;50333;47.436;21.390;2022-08-14T04:14:40;99934.28;;;22.90;61.02
64086;BME280;50333;47.436;21.390;2022-08-14T04:17:08;99932.94;;;23.04;60.73
64086;BME280;50333;47.436;21.390;2022-08-14T04:19:39;99933.69;;;23.24;60.03
64086;BME280;50333;47.436;21.390;2022-08-14T04:22:07;99932.25;;;23.57;59.01
64086;BME280;50333;47.436;21.390;2022-08-14T04:24:38;99935.75;;;23.34;59.62
64086;BME280;50333;47.436;21.390;2022-08-14T04:27:10;99934.03;;;23.76;58.21
64086;BME280;50333;47.436;21.390;2022-08-14T04:29:40;99937.81;;;23.75;58.30
64086;BME280;50333;47.436;21.390;2022-08-14T04:32:11;99930.66;;;23.52;58.77
64086;BME280;50333;47.436;21.390;2022-08-14T04:35:00;99938.63;;;23.79;58.11
64086;BME280;50333;47.436;21.390;2022-08-14T04:37:34;99938.84;;;23.66;58.43
64086;BME280;50333;47.436;21.390;2022-08-14T04:40:20;99934.66;;;23.65;58.58
64086;BME280;50333;47.436;21.390;2022-08-14T04:43:10;99937.88;;;23.25;59.95
64086;BME280;50333;47.436;21.390;2022-08-14T04:46:11;99939.72;;;23.21;59.84
64086;BME280;50333;47.436;21.390;2022-08-14T04:49:00;99939.78;;;23.78;58.45
64086;BME280;50333;47.436;21.390;2022-08-14T04:51:34;99944.31;;;23.77;58.41
64086;BME280;50333;47.436;21.390;2022-08-14T04:54:23;99938.75;;;23.86;58.21
64086;BME280;50333;47.436;21.390;2022-08-14T04:56:54;99946.53;;;23.45;59.39
64086;BME280;50333;47.436;21.390;2022-08-14T04:59:23;99943.75;;;23.91;57.98
64086;BME280;50333;47.436;21.390;2022-08-14T05:01:52;99934.41;;;24.04;57.62
64086;BME280;50333;47.436;21.390;2022-08-14T05:04:23;99940.87;;;23.77;58.14
64086;BME280;50333;47.436;21.390;2022-08-14T05:06:53;99941.69;;;24.07;57.53
64086;BME280;50333;47.436;21.390;2022-08-14T05:09:22;99946.81;;;24.23;57.43
64086;BME280;50333;47.436;21.390;2022-08-14T05:11:56;99943.50;;;24.34;57.10
64086;BME280;50333;47.436;21.390;2022-08-14T05:14:44;99951.78;;;24.59;56.46
64086;BME280;50333;47.436;21.390;2022-08-14T05:17:23;99949.56;;;24.64;56.10
64086;BME280;50333;47.436;21.390;2022-08-14T05:20:10;99947.25;;;24.63;56.69
64086;BME280;50333;47.436;21.390;2022-08-14T05:22:58;99946.59;;;24.73;56.17
64086;BME280;50333;47.436;21.390;2022-08-14T05:25:28;99947.59;;;24.58;56.63
64086;BME280;50333;47.436;21.390;2022-08-14T05:30:43;99954.19;;;24.71;56.50
64086;BME280;50333;47.436;21.390;2022-08-14T05:33:12;99960.25;;;24.34;57.70
64086;BME280;50333;47.436;21.390;2022-08-14T05:35:42;99955.50;;;24.51;57.35
64086;BME280;50333;47.436;21.390;2022-08-14T05:38:15;99950.06;;;24.77;56.21
64086;BME280;50333;47.436;21.390;2022-08-14T05:41:09;99943.31;;;24.91;55.96
64086;BME280;50333;47.436;21.390;2022-08-14T05:43:40;99956.72;;;24.98;55.67
64086;BME280;50333;47.436;21.390;2022-08-14T05:46:12;99950.13;;;24.84;55.88
64086;BME280;50333;47.436;21.390;2022-08-14T05:48:42;99949.44;;;24.95;56.07
64086;BME280;50333;47.436;21.390;2022-08-14T05:51:12;99959.66;;;25.30;55.04
64086;BME280;50333;47.436;21.390;2022-08-14T05:53:40;99955.56;;;24.99;55.66
64086;BME280;50333;47.436;21.390;2022-08-14T05:56:09;99963.78;;;25.24;54.98
64086;BME280;50333;47.436;21.390;2022-08-14T05:58:36;99965.66;;;25.79;53.22
64086;BME280;50333;47.436;21.390;2022-08-14T06:01:07;99963.13;;;25.97;52.67
64086;BME280;50333;47.436;21.390;2022-08-14T06:03:37;99960.25;;;25.65;53.25
64086;BME280;50333;47.436;21.390;2022-08-14T06:06:06;99955.31;;;25.67;53.15
64086;BME280;50333;47.436;21.390;2022-08-14T06:08:36;99950.00;;;25.77;53.14
64086;BME280;50333;47.436;21.390;2022-08-14T06:11:08;99949.84;;;26.15;51.91
64086;BME280;50333;47.436;21.390;2022-08-14T06:13:46;99960.47;;;26.04;51.57
64086;BME280;50333;47.436;21.390;2022-08-14T06:16:15;99957.44;;;26.09;51.49
64086;BME280;50333;47.436;21.390;2022-08-14T06:18:45;99971.19;;;26.08;51.58
64086;BME280;50333;47.436;21.390;2022-08-14T06:21:14;99958.16;;;25.99;51.87
64086;BME280;50333;47.436;21.390;2022-08-14T06:23:43;99958.94;;;26.00;52.05
64086;BME280;50333;47.436;21.390;2022-08-14T06:26:15;99949.88;;;26.37;51.01
64086;BME280;50333;47.436;21.390;2022-08-14T06:28:47;99951.06;;;26.39;51.18
64086;BME280;50333;47.436;21.390;2022-08-14T06:31:20;99953.72;;;26.36;50.70
64086;BME280;50333;47.436;21.390;2022-08-14T06:33:49;99953.00;;;26.49;50.79
64086;BME280;50333;47.436;21.390;2022-08-14T06:36:37;99953.03;;;26.85;49.70
64086;BME280;50333;47.436;21.390;2022-08-14T06:39:06;99953.81;;;27.04;49.21
64086;BME280;50333;47.436;21.390;2022-08-14T06:41:38;99950.75;;;27.05;49.40
64086;BME280;50333;47.436;21.390;2022-08-14T06:44:27;99947.34;;;27.30;48.34
64086;BME280;50333;47.436;21.390;2022-08-14T06:47:01;99945.75;;;27.58;48.19
64086;BME280;50333;47.436;21.390;2022-08-14T06:49:30;99945.41;;;27.20;48.16
64086;BME280;50333;47.436;21.390;2022-08-14T06:52:12;99938.81;;;27.64;47.08
64086;BME280;50333;47.436;21.390;2022-08-14T06:54:43;99939.16;;;27.91;47.06
64086;BME280;50333;47.436;21.390;2022-08-14T06:57:12;99942.94;;;28.01;46.81
64086;BME280;50333;47.436;21.390;2022-08-14T06:59:41;99940.56;;;28.17;45.98
64086;BME280;50333;47.436;21.390;2022-08-14T07:02:09;99934.84;;;28.15;45.86
64086;BME280;50333;47.436;21.390;2022-08-14T07:04:56;99935.28;;;28.03;46.17
64086;BME280;50333;47.436;21.390;2022-08-14T07:07:49;99937.19;;;28.06;46.17
64086;BME280;50333;47.436;21.390;2022-08-14T07:10:17;99930.53;;;28.32;45.66
64086;BME280;50333;47.436;21.390;2022-08-14T07:12:52;99928.00;;;28.67;44.91
64086;BME280;50333;47.436;21.390;2022-08-14T07:15:31;99938.16;;;28.41;45.13
64086;BME280;50333;47.436;21.390;2022-08-14T07:18:07;99930.69;;;28.70;44.75
64086;BME280;50333;47.436;21.390;2022-08-14T07:20:37;99932.59;;;28.70;44.31
64086;BME280;50333;47.436;21.390;2022-08-14T07:23:06;99928.62;;;28.89;44.00
64086;BME280;50333;47.436;21.390;2022-08-14T07:25:49;99921.56;;;29.06;43.45
64086;BME280;50333;47.436;21.390;2022-08-14T07:28:20;99929.19;;;28.66;45.00
64086;BME280;50333;47.436;21.390;2022-08-14T07:30:53;99922.34;;;29.06;43.50
64086;BME280;50333;47.436;21.390;2022-08-14T07:33:43;99927.53;;;29.28;43.20
64086;BME280;50333;47.436;21.390;2022-08-14T07:36:19;99921.09;;;29.18;43.48
64086;BME280;50333;47.436;21.390;2022-08-14T07:38:58;99919.22;;;29.11;43.34
64086;BME280;50333;47.436;21.390;2022-08-14T07:41:27;99923.03;;;29.14;43.50
64086;BME280;50333;47.436;21.390;2022-08-14T07:44:02;99922.22;;;28.72;44.27
64086;BME280;50333;47.436;21.390;2022-08-14T07:46:50;99914.91;;;28.80;43.89
64086;BME280;50333;47.436;21.390;2022-08-14T07:49:19;99915.03;;;29.10;43.03
64086;BME280;50333;47.436;21.390;2022-08-14T07:51:51;99917.59;;;29.25;43.05
64086;BME280;50333;47.436;21.390;2022-08-14T07:54:18;99908.47;;;29.53;42.70
64086;BME280;50333;47.436;21.390;2022-08-14T07:57:00;99912.50;;;29.68;42.06
64086;BME280;50333;47.436;21.390;2022-08-14T07:59:39;99916.25;;;29.78;41.31
64086;BME280;50333;47.436;21.390;2022-08-14T08:02:12;99921.12;;;29.87;41.09
64086;BME280;50333;47.436;21.390;2022-08-14T08:04:51;99911.31;;;29.69;41.30
64086;BME280;50333;47.436;21.390;2022-08-14T08:07:28;99913.84;;;30.15;40.57
64086;BME280;50333;47.436;21.390;2022-08-14T08:09:59;99909.69;;;30.10;40.28
64086;BME280;50333;47.436;21.390;2022-08-14T08:12:29;99908.53;;;30.66;39.35
64086;BME280;50333;47.436;21.390;2022-08-14T08:14:59;99911.03;;;31.00;38.27
64086;BME280;50333;47.436;21.390;2022-08-14T08:17:33;99903.88;;;30.93;38.64
64086;BME280;50333;47.436;21.390;2022-08-14T08:20:07;99900.03;;;31.14;38.18
64086;BME280;50333;47.436;21.390;2022-08-14T08:22:39;99891.75;;;31.25;37.88
64086;BME280;50333;47.436;21.390;2022-08-14T08:25:17;99893.75;;;31.61;37.41
64086;BME280;50333;47.436;21.390;2022-08-14T08:30:28;99894.00;;;31.07;37.98
64086;BME280;50333;47.436;21.390;2022-08-14T08:32:57;99892.13;;;31.04;37.89
64086;BME280;50333;47.436;21.390;2022-08-14T08:35:28;99878.81;;;31.36;37.30
64086;BME280;50333;47.436;21.390;2022-08-14T08:38:17;99884.91;;;31.20;37.54
64086;BME280;50333;47.436;21.390;2022-08-14T08:41:05;99880.00;;;31.75;36.29
64086;BME280;50333;47.436;21.390;2022-08-14T08:43:38;99880.41;;;32.10;35.50
64086;BME280;50333;47.436;21.390;2022-08-14T08:46:18;99867.00;;;32.23;34.59
64086;BME280;50333;47.436;21.390;2022-08-14T08:48:53;99870.59;;;32.00;35.31
64086;BME280;50333;47.436;21.390;2022-08-14T08:51:31;99872.06;;;32.54;33.89
64086;BME280;50333;47.436;21.390;2022-08-14T08:54:09;99870.38;;;32.60;33.75
64086;BME280;50333;47.436;21.390;2022-08-14T08:56:50;99866.25;;;32.39;33.61
64086;BME280;50333;47.436;21.390;2022-08-14T08:59:27;99859.09;;;32.49;34.01
64086;BME280;50333;47.436;21.390;2022-08-14T09:02:05;99870.22;;;32.35;34.31
64086;BME280;50333;47.436;21.390;2022-08-14T09:04:39;99864.81;;;32.67;33.49
64086;BME280;50333;47.436;21.390;2022-08-14T09:07:26;99858.75;;;32.47;33.22
64086;BME280;50333;47.436;21.390;2022-08-14T09:09:54;99854.41;;;32.82;31.99
64086;BME280;50333;47.436;21.390;2022-08-14T09:12:28;99860.84;;;32.72;32.50
64086;BME280;50333;47.436;21.390;2022-08-14T09:15:06;99855.44;;;32.72;32.83
64086;BME280;50333;47.436;21.390;2022-08-14T09:17:40;99849.00;;;32.82;32.99
64086;BME280;50333;47.436;21.390;2022-08-14T09:20:10;99842.91;;;32.95;32.84
64086;BME280;50333;47.436;21.390;2022-08-14T09:22:40;99847.53;;;32.94;32.48
64086;BME280;50333;47.436;21.390;2022-08-14T09:25:14;99836.44;;;33.34;32.23
64086;BME280;50333;47.436;21.390;2022-08-14T09:27:43;99834.59;;;33.31;32.50
64086;BME280;50333;47.436;21.390;2022-08-14T09:30:12;99833.06;;;33.30;32.25
64086;BME280;50333;47.436;21.390;2022-08-14T09:44:05;99825.53;;;33.51;30.89
64086;BME280;50333;47.436;21.390;2022-08-14T09:46:34;99825.63;;;34.11;30.06
64086;BME280;50333;47.436;21.390;2022-08-14T09:49:05;99812.56;;;33.97;30.28
64086;BME280;50333;47.436;21.390;2022-08-14T09:51:40;99819.78;;;34.26;29.87
64086;BME280;50333;47.436;21.390;2022-08-14T09:54:18;99816.63;;;34.40;29.81
64086;BME280;50333;47.436;21.390;2022-08-14T09:56:50;99820.31;;;34.33;29.58
64086;BME280;50333;47.436;21.390;2022-08-14T09:59:24;99811.34;;;34.36;29.47
64086;BME280;50333;47.436;21.390;2022-08-14T10:01:54;99809.75;;;34.48;28.68
64086;BME280;50333;47.436;21.390;2022-08-14T10:04:26;99804.66;;;34.50;28.62
64086;BME280;50333;47.436;21.390;2022-08-14T10:07:05;99802.69;;;34.86;27.98
64086;BME280;50333;47.436;21.390;2022-08-14T10:09:48;99797.28;;;34.86;27.91
64086;BME280;50333;47.436;21.390;2022-08-14T10:12:46;99786.66;;;35.01;27.48
64086;BME280;50333;47.436;21.390;2022-08-14T10:15:26;99791.81;;;34.77;26.83
64086;BME280;50333;47.436;21.390;2022-08-14T10:20:38;99796.81;;;35.09;25.69
64086;BME280;50333;47.436;21.390;2022-08-14T10:23:19;99793.63;;;35.02;26.14
64086;BME280;50333;47.436;21.390;2022-08-14T10:25:57;99792.56;;;34.77;27.85
64086;BME280;50333;47.436;21.390;2022-08-14T10:28:42;99790.38;;;34.28;28.02
64086;BME280;50333;47.436;21.390;2022-08-14T10:31:31;99787.94;;;34.65;27.49
64086;BME280;50333;47.436;21.390;2022-08-14T10:34:17;99787.94;;;34.87;26.84
64086;BME280;50333;47.436;21.390;2022-08-14T10:36:45;99788.03;;;34.96;26.43
64086;BME280;50333;47.436;21.390;2022-08-14T10:39:29;99781.03;;;34.86;26.75
64086;BME280;50333;47.436;21.390;2022-08-14T10:42:00;99781.56;;;34.71;26.61
64086;BME280;50333;47.436;21.390;2022-08-14T10:44:45;99774.72;;;34.67;26.78
64086;BME280;50333;47.436;21.390;2022-08-14T10:47:19;99779.66;;;34.81;27.26
64086;BME280;50333;47.436;21.390;2022-08-14T10:50:07;99772.22;;;34.94;27.10
64086;BME280;50333;47.436;21.390;2022-08-14T10:52:42;99766.38;;;35.05;26.17
64086;BME280;50333;47.436;21.390;2022-08-14T10:55:12;99769.06;;;34.96;26.54
64086;BME280;50333;47.436;21.390;2022-08-14T11:00:17;99769.66;;;34.34;27.56
64086;BME280;50333;47.436;21.390;2022-08-14T11:02:58;99762.63;;;34.59;27.25
64086;BME280;50333;47.436;21.390;2022-08-14T11:05:43;99761.00;;;34.61;26.86
64086;BME280;50333;47.436;21.390;2022-08-14T11:08:13;99752.81;;;34.96;26.19
64086;BME280;50333;47.436;21.390;2022-08-14T11:10:57;99752.59;;;34.90;25.76
64086;BME280;50333;47.436;21.390;2022-08-14T11:13:29;99757.09;;;34.40;26.57
64086;BME280;50333;47.436;21.390;2022-08-14T11:15:59;99756.84;;;34.91;26.09
64086;BME280;50333;47.436;21.390;2022-08-14T11:18:29;99752.44;;;34.63;26.03
64086;BME280;50333;47.436;21.390;2022-08-14T11:21:07;99747.63;;;34.45;26.64
64086;BME280;50333;47.436;21.390;2022-08-14T11:23:37;99749.91;;;34.46;26.56
64086;BME280;50333;47.436;21.390;2022-08-14T11:26:12;99744.13;;;35.10;24.78
64086;BME280;50333;47.436;21.390;2022-08-14T11:28:46;99743.19;;;35.04;24.43
64086;BME280;50333;47.436;21.390;2022-08-14T11:31:21;99744.47;;;34.90;25.11
64086;BME280;50333;47.436;21.390;2022-08-14T11:33:52;99751.88;;;35.21;24.58
64086;BME280;50333;47.436;21.390;2022-08-14T11:36:27;99745.78;;;35.08;24.89
64086;BME280;50333;47.436;21.390;2022-08-14T11:39:22;99748.25;;;33.15;27.32
64086;BME280;50333;47.436;21.390;2022-08-14T11:42:04;99745.09;;;34.50;26.01
64086;BME280;50333;47.436;21.390;2022-08-14T11:44:56;99751.44;;;34.47;25.31
64086;BME280;50333;47.436;21.390;2022-08-14T11:47:27;99747.38;;;34.17;25.67
64086;BME280;50333;47.436;21.390;2022-08-14T11:50:19;99732.56;;;34.79;24.68
64086;BME280;50333;47.436;21.390;2022-08-14T11:53:05;99735.44;;;33.92;25.80
64086;BME280;50333;47.436;21.390;2022-08-14T11:55:36;99739.69;;;34.50;25.21
64086;BME280;50333;47.436;21.390;2022-08-14T11:58:09;99742.03;;;34.61;24.95
64086;BME280;50333;47.436;21.390;2022-08-14T12:00:48;99746.25;;;34.62;25.17
64086;BME280;50333;47.436;21.390;2022-08-14T12:03:19;99740.09;;;34.62;24.40
64086;BME280;50333;47.436;21.390;2022-08-14T12:06:10;99738.28;;;35.12;23.59
64086;BME280;50333;47.436;21.390;2022-08-14T12:08:58;99739.59;;;34.76;24.22
64086;BME280;50333;47.436;21.390;2022-08-14T12:11:37;99743.09;;;34.64;24.37
64086;BME280;50333;47.436;21.390;2022-08-14T12:14:10;99742.75;;;34.52;24.39
64086;BME280;50333;47.436;21.390;2022-08-14T12:17:05;99737.00;;;34.94;23.90
64086;BME280;50333;47.436;21.390;2022-08-14T12:22:37;99743.88;;;34.42;24.24
64086;BME280;50333;47.436;21.390;2022-08-14T12:25:09;99726.16;;;34.94;23.80
64086;BME280;50333;47.436;21.390;2022-08-14T12:30:40;99725.28;;;35.29;23.79
64086;BME280;50333;47.436;21.390;2022-08-14T12:33:26;99720.31;;;35.27;24.02
64086;BME280;50333;47.436;21.390;2022-08-14T12:36:08;99720.03;;;35.44;23.56
64086;BME280;50333;47.436;21.390;2022-08-14T12:38:42;99714.47;;;35.07;23.54
64086;BME280;50333;47.436;21.390;2022-08-14T12:41:15;99720.09;;;34.90;23.03
64086;BME280;50333;47.436;21.390;2022-08-14T12:43:57;99711.03;;;35.06;23.37
64086;BME280;50333;47.436;21.390;2022-08-14T12:49:02;99699.25;;;35.41;23.08
64086;BME280;50333;47.436;21.390;2022-08-14T12:51:35;99693.63;;;34.85;23.32
64086;BME280;50333;47.436;21.390;2022-08-14T12:54:17;99702.22;;;35.24;22.96
64086;BME280;50333;47.436;21.390;2022-08-14T12:57:03;99693.50;;;34.67;23.40
64086;BME280;50333;47.436;21.390;2022-08-14T12:59:33;99692.38;;;34.77;23.74
64086;BME280;50333;47.436;21.390;2022-08-14T13:02:22;99698.44;;;34.37;24.33
64086;BME280;50333;47.436;21.390;2022-08-14T13:04:56;99686.34;;;34.51;23.95
64086;BME280;50333;47.436;21.390;2022-08-14T13:07:28;99684.69;;;34.75;23.97
64086;BME280;50333;47.436;21.390;2022-08-14T13:10:00;99685.72;;;34.25;24.31
64086;BME280;50333;47.436;21.390;2022-08-14T13:12:50;99691.13;;;33.90;24.21
64086;BME280;50333;47.436;21.390;2022-08-14T13:15:39;99677.59;;;34.12;24.66
64086;BME280;50333;47.436;21.390;2022-08-14T13:18:08;99669.72;;;34.40;24.38
64086;BME280;50333;47.436;21.390;2022-08-14T13:20:40;99675.25;;;34.36;24.13
64086;BME280;50333;47.436;21.390;2022-08-14T13:23:24;99668.88;;;34.08;23.09
64086;BME280;50333;47.436;21.390;2022-08-14T13:25:59;99661.25;;;34.15;24.03
64086;BME280;50333;47.436;21.390;2022-08-14T13:28:30;99655.38;;;34.30;24.19
64086;BME280;50333;47.436;21.390;2022-08-14T13:31:01;99658.84;;;34.52;23.50
64086;BME280;50333;47.436;21.390;2022-08-14T13:33:38;99662.41;;;34.49;23.57
64086;BME280;50333;47.436;21.390;2022-08-14T13:36:08;99657.50;;;34.13;23.90
64086;BME280;50333;47.436;21.390;2022-08-14T13:38:52;99658.37;;;34.10;24.12
64086;BME280;50333;47.436;21.390;2022-08-14T13:41:20;99657.56;;;34.00;24.63
64086;BME280;50333;47.436;21.390;2022-08-14T13:44:03;99647.12;;;33.76;24.53
64086;BME280;50333;47.436;21.390;2022-08-14T13:46:34;99650.53;;;33.42;25.54
64086;BME280;50333;47.436;21.390;2022-08-14T13:49:01;99649.22;;;33.72;25.35
64086;BME280;50333;47.436;21.390;2022-08-14T13:51:35;99649.41;;;33.78;25.78
64086;BME280;50333;47.436;21.390;2022-08-14T13:54:04;99646.81;;;33.74;25.73
64086;BME280;50333;47.436;21.390;2022-08-14T13:56:39;99640.97;;;33.76;25.44
64086;BME280;50333;47.436;21.390;2022-08-14T13:59:09;99641.75;;;33.98;24.83
64086;BME280;50333;47.436;21.390;2022-08-14T14:01:38;99651.41;;;33.39;25.67
64086;BME280;50333;47.436;21.390;2022-08-14T14:04:16;99640.00;;;33.70;25.41
64086;BME280;50333;47.436;21.390;2022-08-14T14:06:49;99646.56;;;33.21;26.28
64086;BME280;50333;47.436;21.390;2022-08-14T14:09:25;99654.03;;;33.17;27.15